Time;durP1;ratioP1;P1;durP2;ratioP2;P2;SDS_P1;SDS_P2;PMS_P1;PMS_P2;Temp;Humidity;BMP_temperature;BMP_pressure;BME280_temperature;BME280_humidity;BME280_pressure;Samples;Min_cycle;Max_cycle;Signal;HPM_P1;HPM_P2
2022/11/12 00:00:34;;;;;;;7.05;3.40;;;5.80;99.90;;;;;;5074048;28;20119;-80
2022/11/12 00:03:00;;;;;;;5.88;3.50;;;5.60;99.90;;;;;;5074543;28;20059;-80
2022/11/12 00:05:26;;;;;;;8.75;4.35;;;5.90;99.90;;;;;;5058229;28;20063;-84
2022/11/12 00:07:52;;;;;;;21.23;6.45;;;5.90;99.90;;;;;;5040296;28;20475;-84
2022/11/12 00:10:18;;;;;;;18.17;7.40;;;6.70;99.90;;;;;;5057493;28;20044;-84
2022/11/12 00:12:44;;;;;;;16.52;6.18;;;5.90;99.90;;;;;;5073701;28;20039;-84
2022/11/12 00:15:10;;;;;;;14.02;6.07;;;5.60;99.90;;;;;;5073909;28;20127;-84
2022/11/12 00:17:36;;;;;;;13.50;6.05;;;6.10;99.90;;;;;;5073927;28;20047;-84
2022/11/12 00:20:03;;;;;;;15.23;5.50;;;5.50;99.90;;;;;;5057966;28;20040;-84
2022/11/12 00:22:29;;;;;;;10.48;4.93;;;5.60;99.90;;;;;;5045740;28;20032;-84
2022/11/12 00:24:54;;;;;;;16.88;6.40;;;5.90;99.90;;;;;;5074409;28;20512;-84
2022/11/12 00:27:21;;;;;;;14.45;6.97;;;5.50;99.90;;;;;;5057120;28;20036;-84
2022/11/12 00:29:47;;;;;;;12.10;5.47;;;4.10;99.90;;;;;;5075101;28;20037;-84
2022/11/12 00:32:13;;;;;;;21.25;6.90;;;5.40;99.90;;;;;;5048486;28;20048;-84
2022/11/12 00:34:38;;;;;;;15.75;7.00;;;5.50;99.90;;;;;;5073509;28;20040;-84
2022/11/12 00:37:04;;;;;;;19.60;8.10;;;5.30;99.90;;;;;;5073325;28;20051;-81
2022/11/12 00:39:30;;;;;;;16.48;7.10;;;5.30;99.90;;;;;;5057203;28;20047;-81
2022/11/12 00:41:56;;;;;;;13.70;6.32;;;5.30;99.90;;;;;;5070686;28;20410;-81
2022/11/12 00:44:22;;;;;;;10.82;6.18;;;5.30;99.90;;;;;;5071588;28;20693;-81
2022/11/12 00:46:47;;;;;;;11.82;5.78;;;6.30;99.90;;;;;;5073336;28;20131;-81
2022/11/12 00:49:13;;;;;;;11.38;4.95;;;5.20;99.90;;;;;;5055864;28;20041;-81
2022/11/12 00:51:39;;;;;;;12.63;4.50;;;5.20;99.90;;;;;;5073275;28;20046;-81
2022/11/12 00:54:05;;;;;;;15.65;7.47;;;6.00;99.90;;;;;;5069757;28;20048;-81
2022/11/12 00:56:31;;;;;;;11.77;6.03;;;5.20;99.90;;;;;;5073406;28;20125;-80
2022/11/12 00:58:57;;;;;;;10.73;5.10;;;5.30;99.90;;;;;;5055668;28;20083;-80
2022/11/12 01:01:24;;;;;;;9.75;4.93;;;5.20;99.90;;;;;;5072386;28;20045;-80
2022/11/12 01:03:50;;;;;;;10.63;5.38;;;5.80;99.90;;;;;;5072532;28;20041;-81
2022/11/12 01:06:21;;;;;;;12.90;5.65;;;5.10;99.90;;;;;;5070326;28;20040;-80
2022/11/12 01:08:47;;;;;;;9.75;4.70;;;5.20;99.90;;;;;;5056677;28;20080;-80
2022/11/12 01:11:16;;;;;;;7.97;4.25;;;5.00;99.90;;;;;;5073376;28;20051;-84
2022/11/12 01:13:44;;;;;;;9.15;4.35;;;5.00;99.90;;;;;;5071563;28;20057;-84
2022/11/12 01:16:14;;;;;;;10.40;4.90;;;4.90;99.90;;;;;;5056193;28;20044;-84
2022/11/12 01:18:39;;;;;;;9.75;4.85;;;4.90;99.90;;;;;;5073339;28;20056;-84
2022/11/12 01:21:06;;;;;;;10.13;4.60;;;5.00;99.90;;;;;;5073175;28;20059;-84
2022/11/12 01:23:34;;;;;;;8.73;4.20;;;5.20;99.90;;;;;;5055817;28;20044;-84
2022/11/12 01:26:10;;;;;;;12.23;5.20;;;5.20;99.90;;;;;;5055500;28;20102;-84
2022/11/12 01:28:36;;;;;;;7.80;3.80;;;5.30;99.90;;;;;;5073057;28;20039;-81
2022/11/12 01:31:12;;;;;;;9.13;3.80;;;5.10;99.90;;;;;;5072102;28;20119;-81
2022/11/12 01:33:38;;;;;;;7.13;3.67;;;5.10;99.90;;;;;;5072239;28;20041;-81
2022/11/12 01:36:05;;;;;;;7.28;3.63;;;5.10;99.90;;;;;;5068380;28;20149;-81
2022/11/12 01:38:36;;;;;;;7.93;5.10;;;5.00;99.90;;;;;;5068548;28;20037;-81
2022/11/12 01:41:02;;;;;;;11.18;4.85;;;5.00;99.90;;;;;;5071083;28;20041;-81
2022/11/12 01:43:27;;;;;;;6.70;3.70;;;5.00;99.90;;;;;;5068714;28;20043;-81
2022/11/12 01:45:53;;;;;;;14.00;4.30;;;5.10;99.90;;;;;;5070154;28;20028;-80
2022/11/12 01:48:50;;;;;;;8.77;4.82;;;5.00;99.90;;;;;;5055220;28;20037;-80
2022/11/12 01:51:18;;;;;;;;;;;5.10;99.90;;;;;;5054793;28;20090;-80
2022/11/12 01:53:47;;;;;;;9.88;4.68;;;5.10;99.90;;;;;;5053401;28;20436;-80
2022/11/12 01:56:14;;;;;;;9.15;4.65;;;5.60;99.90;;;;;;5070035;28;20048;-80
2022/11/12 01:58:41;;;;;;;10.13;4.28;;;5.10;99.90;;;;;;5038105;28;20045;-80
2022/11/12 02:01:06;;;;;;;9.57;4.22;;;5.10;99.90;;;;;;5060565;28;20494;-80
2022/11/12 02:03:32;;;;;;;7.63;4.38;;;5.00;99.90;;;;;;5053962;28;20037;-80
2022/11/12 02:06:10;;;;;;;8.50;4.63;;;5.00;99.90;;;;;;5053252;28;20051;-79
2022/11/12 02:08:37;;;;;;;9.63;5.13;;;5.20;99.90;;;;;;5064102;28;20052;-79
2022/11/12 02:11:15;;;;;;;9.63;4.78;;;5.00;99.90;;;;;;5056431;28;20033;-79
2022/11/12 02:13:57;;;;;;;8.88;4.50;;;5.10;99.90;;;;;;5072020;28;20052;-80
2022/11/12 02:16:45;;;;;;;8.20;4.38;;;6.10;99.90;;;;;;5071724;28;20483;-79
2022/11/12 02:19:14;;;;;;;10.68;4.95;;;5.00;99.90;;;;;;5071766;28;20071;-84
2022/11/12 02:21:41;;;;;;;8.20;4.00;;;5.00;99.90;;;;;;5071959;28;20061;-84
2022/11/12 02:24:12;;;;;;;9.00;4.28;;;5.10;99.90;;;;;;5072168;28;20039;-84
2022/11/12 02:26:44;;;;;;;6.93;3.85;;;5.00;99.90;;;;;;5072009;28;20040;-84
2022/11/12 02:29:10;;;;;;;8.07;3.97;;;5.00;99.90;;;;;;5072757;28;20044;-84
2022/11/12 02:31:36;;;;;;;6.97;3.90;;;5.00;99.90;;;;;;5053370;28;20045;-84
2022/11/12 02:34:02;;;;;;;10.00;3.80;;;5.00;99.90;;;;;;5066854;28;20044;-81
2022/11/12 02:36:28;;;;;;;7.18;3.70;;;5.00;99.90;;;;;;5071799;28;20161;-81
2022/11/12 02:38:54;;;;;;;10.45;5.78;;;4.90;99.90;;;;;;5069233;28;20048;-80
2022/11/12 02:41:20;;;;;;;13.90;5.80;;;6.00;99.90;;;;;;5072271;28;20044;-80
2022/11/12 02:43:45;;;;;;;12.88;5.78;;;5.00;99.90;;;;;;5072155;28;20181;-80
2022/11/12 02:46:11;;;;;;;10.02;4.50;;;6.00;99.90;;;;;;5055128;28;20071;-80
2022/11/12 02:48:37;;;;;;;9.32;5.22;;;5.00;99.90;;;;;;5071269;28;20623;-80
2022/11/12 02:51:04;;;;;;;8.95;4.28;;;5.00;99.90;;;;;;5064781;28;20040;-81
2022/11/12 02:53:31;;;;;;;7.40;3.85;;;5.00;99.90;;;;;;5072041;28;20505;-81
2022/11/12 02:55:57;;;;;;;8.38;4.35;;;4.90;99.90;;;;;;5052341;28;20128;-81
2022/11/12 02:58:23;;;;;;;9.23;4.70;;;5.60;99.90;;;;;;5070492;28;20435;-81
2022/11/12 03:00:49;;;;;;;6.90;3.83;;;4.80;99.90;;;;;;5069667;28;20045;-81
2022/11/12 03:03:15;;;;;;;8.77;4.10;;;5.70;99.90;;;;;;5053568;28;20047;-81
2022/11/12 03:05:41;;;;;;;9.05;4.22;;;4.70;99.90;;;;;;5074299;28;20413;-81
2022/11/12 03:08:08;;;;;;;9.63;4.53;;;4.70;99.90;;;;;;5038752;28;20039;-81
2022/11/12 03:10:37;;;;;;;8.73;4.18;;;4.70;99.90;;;;;;5056781;28;20068;-81
2022/11/12 03:13:04;;;;;;;6.53;3.85;;;5.50;99.90;;;;;;5075480;28;20051;-81
2022/11/12 03:15:30;;;;;;;11.20;5.38;;;4.50;99.90;;;;;;5058426;28;20049;-81
2022/11/12 03:17:59;;;;;;;8.85;4.50;;;4.50;99.90;;;;;;5057490;28;20158;-80
2022/11/12 03:20:26;;;;;;;10.02;4.93;;;4.50;99.90;;;;;;5074899;28;20116;-80
2022/11/12 03:22:56;;;;;;;7.80;4.57;;;4.30;99.90;;;;;;5074980;28;20477;-80
2022/11/12 03:25:23;;;;;;;8.60;4.82;;;5.50;99.90;;;;;;5070823;28;20095;-79
2022/11/12 03:27:56;;;;;;;9.13;4.15;;;5.60;99.90;;;;;;5040997;28;20037;-79
2022/11/12 03:30:21;;;;;;;7.35;4.47;;;4.40;99.90;;;;;;5056316;28;20090;-79
2022/11/12 03:32:47;;;;;;;8.60;4.30;;;5.60;99.90;;;;;;5051566;28;20048;-79
2022/11/12 03:35:13;;;;;;;7.65;4.80;;;4.40;99.90;;;;;;5055960;28;20127;-79
2022/11/12 03:37:39;;;;;;;9.05;4.28;;;4.50;99.90;;;;;;5056231;28;20119;-79
2022/11/12 03:40:05;;;;;;;5.63;3.30;;;4.50;99.90;;;;;;5055084;28;20098;-84
2022/11/12 03:42:31;;;;;;;7.18;4.05;;;4.60;99.90;;;;;;5053718;28;20047;-84
2022/11/12 03:44:56;;;;;;;6.85;3.67;;;4.70;99.90;;;;;;5038150;28;20131;-84
2022/11/12 03:47:22;;;;;;;7.40;4.15;;;4.80;99.90;;;;;;5053849;28;20390;-84
2022/11/12 03:49:47;;;;;;;9.07;4.70;;;5.00;99.90;;;;;;5057163;28;20052;-84
2022/11/12 03:52:13;;;;;;;6.72;3.90;;;5.20;99.90;;;;;;5072234;28;20044;-84
2022/11/12 03:54:39;;;;;;;7.72;4.10;;;5.20;99.90;;;;;;5074250;28;20547;-84
2022/11/12 03:57:04;;;;;;;6.95;3.58;;;5.30;99.90;;;;;;5071851;28;20124;-79
2022/11/12 03:59:30;;;;;;;9.55;4.90;;;5.40;99.90;;;;;;5073675;28;20040;-79
2022/11/12 04:01:56;;;;;;;10.45;5.20;;;5.60;99.90;;;;;;5071125;28;20079;-79
2022/11/12 04:04:21;;;;;;;14.40;6.00;;;5.70;99.90;;;;;;5036351;28;20535;-79
2022/11/12 04:09:31;;;;;;;11.55;6.15;;;5.90;99.90;;;;;;5063235;28;20055;-79
2022/11/12 04:13:26;;;;;;;10.45;6.07;;;6.00;99.90;;;;;;5054742;28;20048;-79
2022/11/12 04:14:42;;;;;;;11.27;6.22;;;6.30;99.90;;;;;;5073685;28;20136;-80
2022/11/12 04:22:36;;;;;;;18.60;7.03;;;6.70;99.90;;;;;;5047177;28;20045;-81
2022/11/12 04:27:46;;;;;;;15.13;7.03;;;6.40;99.90;;;;;;5070792;28;20037;-81
2022/11/12 04:30:17;;;;;;;19.15;6.90;;;6.50;99.90;;;;;;5037286;28;20475;-81
2022/11/12 04:32:55;;;;;;;18.42;7.45;;;6.50;99.90;;;;;;5068876;28;20094;-81
2022/11/12 04:35:23;;;;;;;17.30;7.93;;;6.60;99.90;;;;;;5072476;28;20044;-81
2022/11/12 04:37:49;;;;;;;21.45;8.32;;;6.60;99.90;;;;;;5070598;28;20037;-81
2022/11/12 04:45:54;;;;;;;11.20;5.47;;;6.70;99.90;;;;;;5072416;28;20486;-81
2022/11/12 04:48:21;;;;;;;16.02;6.70;;;6.80;99.90;;;;;;5055633;28;20060;-80
2022/11/12 04:50:56;;;;;;;15.05;6.03;;;7.10;99.90;;;;;;5072836;28;20050;-80
2022/11/12 04:53:22;;;;;;;13.30;6.63;;;6.80;99.90;;;;;;5072809;28;20037;-80
2022/11/12 04:55:52;;;;;;;16.77;7.28;;;6.80;99.90;;;;;;5070836;28;20386;-80
2022/11/12 04:58:19;;;;;;;16.20;6.80;;;6.80;99.90;;;;;;5064598;28;20048;-80
2022/11/12 05:00:45;;;;;;;14.32;6.38;;;6.90;99.90;;;;;;5066747;28;20422;-80
2022/11/12 05:03:10;;;;;;;25.80;10.13;;;6.90;99.90;;;;;;5071683;28;20047;-80
2022/11/12 05:05:36;;;;;;;13.52;7.00;;;7.40;99.90;;;;;;5070186;28;20154;-81
2022/11/12 05:08:02;;;;;;;14.38;6.43;;;6.90;99.90;;;;;;5055830;28;20072;-81
2022/11/12 05:10:29;;;;;;;18.67;7.60;;;6.90;99.90;;;;;;5073054;28;20080;-81
2022/11/12 05:12:54;;;;;;;15.68;7.05;;;7.10;99.90;;;;;;5024131;28;20123;-81
2022/11/12 05:15:20;;;;;;;16.38;7.57;;;7.00;99.90;;;;;;5067969;28;20486;-81
2022/11/12 05:17:46;;;;;;;16.73;6.78;;;7.00;99.90;;;;;;5055271;28;20047;-81
2022/11/12 05:20:12;;;;;;;22.98;9.00;;;7.10;99.90;;;;;;5072382;28;20127;-79
2022/11/12 05:22:38;;;;;;;18.45;8.15;;;7.00;99.90;;;;;;5071455;28;20040;-79
2022/11/12 05:25:05;;;;;;;20.50;7.38;;;7.10;99.90;;;;;;5072501;28;20379;-79
2022/11/12 05:27:31;;;;;;;17.92;7.35;;;7.20;99.90;;;;;;5070292;28;20040;-79
2022/11/12 05:29:57;;;;;;;17.23;7.53;;;7.10;99.90;;;;;;5072166;28;20043;-79
2022/11/12 05:32:22;;;;;;;15.48;6.85;;;7.20;99.90;;;;;;5036234;28;20072;-79
2022/11/12 05:34:48;;;;;;;16.73;7.10;;;8.00;99.90;;;;;;5061175;28;20068;-79
2022/11/12 05:37:14;;;;;;;16.15;8.02;;;7.60;99.90;;;;;;5069924;28;20032;-79
2022/11/12 05:39:40;;;;;;;18.80;8.32;;;7.20;99.90;;;;;;5035564;28;20040;-79
2022/11/12 05:42:07;;;;;;;14.68;7.57;;;7.20;99.90;;;;;;5055081;28;20059;-79
2022/11/12 05:44:32;;;;;;;15.38;6.80;;;7.20;99.90;;;;;;5072669;28;20078;-79
2022/11/12 05:46:58;;;;;;;30.42;8.85;;;7.20;99.90;;;;;;5054429;28;20064;-79
2022/11/12 05:49:24;;;;;;;17.27;7.55;;;7.20;99.90;;;;;;5049900;28;20037;-79
2022/11/12 05:51:50;;;;;;;18.08;8.82;;;7.30;99.90;;;;;;5048854;28;20403;-79
2022/11/12 05:54:16;;;;;;;17.60;7.03;;;7.30;99.90;;;;;;5038203;28;20360;-80
2022/11/12 05:56:42;;;;;;;21.17;8.52;;;7.30;99.90;;;;;;5072501;28;20067;-81
2022/11/12 05:59:10;;;;;;;31.80;8.00;;;7.30;99.90;;;;;;5072035;28;20401;-81
2022/11/12 06:01:45;;;;;;;26.55;8.45;;;7.30;99.90;;;;;;5052642;28;20044;-80
2022/11/12 06:04:12;;;;;;;19.75;9.57;;;7.40;99.90;;;;;;5063391;28;20037;-80
2022/11/12 06:06:42;;;;;;;19.17;8.45;;;7.30;99.90;;;;;;5072037;28;20155;-80
2022/11/12 06:09:09;;;;;;;17.60;7.93;;;7.40;99.90;;;;;;5072136;28;20055;-80
2022/11/12 06:11:35;;;;;;;18.23;7.25;;;7.40;99.90;;;;;;5055553;28;20053;-80
2022/11/12 06:14:02;;;;;;;15.55;7.22;;;7.40;99.90;;;;;;5072785;28;20113;-80
2022/11/12 06:16:29;;;;;;;21.15;8.98;;;7.50;99.90;;;;;;5054846;28;20052;-80
2022/11/12 06:18:55;;;;;;;35.15;10.05;;;7.40;99.90;;;;;;5054782;28;20079;-80
2022/11/12 06:21:25;;;;;;;40.92;10.80;;;7.40;99.90;;;;;;5036278;28;20090;-80
2022/11/12 06:23:57;;;;;;;25.05;10.25;;;7.30;99.90;;;;;;5056048;28;20040;-80
2022/11/12 06:26:25;;;;;;;23.67;9.38;;;7.40;99.90;;;;;;5072140;28;20032;-82
2022/11/12 06:28:51;;;;;;;21.70;8.00;;;7.30;99.90;;;;;;5072343;28;20076;-81
2022/11/12 06:31:17;;;;;;;19.00;7.80;;;7.40;99.90;;;;;;5049549;28;20056;-80
2022/11/12 06:33:44;;;;;;;28.33;8.90;;;7.30;99.90;;;;;;5069164;28;20048;-81
2022/11/12 06:36:11;;;;;;;18.50;8.10;;;5.70;99.90;;;;;;5055601;28;20044;-80
2022/11/12 06:38:38;;;;;;;13.60;6.88;;;7.80;99.90;;;;;;5071458;28;20044;-81
2022/11/12 06:41:06;;;;;;;17.85;6.38;;;7.20;99.90;;;;;;5072723;28;20037;-81
2022/11/12 06:43:33;;;;;;;17.08;7.68;;;7.20;99.90;;;;;;5075866;28;20089;-84
2022/11/12 06:46:04;;;;;;;27.30;9.27;;;7.20;99.90;;;;;;5076272;28;20040;-84
2022/11/12 06:48:30;;;;;;;24.88;8.23;;;7.20;99.90;;;;;;5076149;28;20055;-84
2022/11/12 06:50:56;;;;;;;13.75;7.35;;;7.20;99.90;;;;;;5057852;28;20041;-84
2022/11/12 06:53:23;;;;;;;29.92;9.27;;;7.10;99.90;;;;;;5074313;28;20483;-84
2022/11/12 06:55:49;;;;;;;17.65;7.88;;;7.10;99.90;;;;;;5039935;28;20182;-84
2022/11/12 06:58:15;;;;;;;17.40;7.72;;;7.60;99.90;;;;;;5071053;28;20123;-84
2022/11/12 07:00:42;;;;;;;25.35;9.77;;;7.10;99.90;;;;;;5072862;28;20064;-80
2022/11/12 07:03:12;;;;;;;20.30;8.98;;;7.20;99.90;;;;;;5070590;28;20076;-80
2022/11/12 07:05:38;;;;;;;20.15;9.75;;;7.10;99.90;;;;;;5056794;28;20127;-79
2022/11/12 07:08:05;;;;;;;18.55;9.30;;;7.20;99.90;;;;;;5074943;28;20047;-80
2022/11/12 07:10:31;;;;;;;18.00;7.95;;;7.10;99.90;;;;;;5074672;28;20045;-80
2022/11/12 07:12:57;;;;;;;20.02;8.02;;;7.20;99.90;;;;;;5073247;28;20032;-80
2022/11/12 07:15:23;;;;;;;26.35;10.23;;;7.20;99.90;;;;;;5041911;28;20059;-80
2022/11/12 07:17:48;;;;;;;22.55;9.38;;;7.20;99.90;;;;;;5037918;28;20056;-80
2022/11/12 07:20:14;;;;;;;22.50;8.02;;;7.30;99.90;;;;;;5041117;28;20063;-80
2022/11/12 07:22:40;;;;;;;15.60;8.15;;;7.20;99.90;;;;;;5055384;28;20037;-80
2022/11/12 07:25:06;;;;;;;21.00;8.57;;;7.20;99.90;;;;;;5050579;28;20380;-80
2022/11/12 07:27:32;;;;;;;26.02;9.40;;;7.20;99.90;;;;;;5063042;22;20044;-80
2022/11/12 07:29:57;;;;;;;24.90;9.15;;;7.20;99.90;;;;;;5020696;28;20051;-81
2022/11/12 07:32:23;;;;;;;18.95;8.50;;;7.20;99.90;;;;;;5037203;28;20037;-81
2022/11/12 07:34:49;;;;;;;20.75;9.45;;;7.80;99.90;;;;;;5036270;28;20491;-81
2022/11/12 07:37:15;;;;;;;27.33;10.40;;;7.20;99.90;;;;;;5037468;28;20040;-81
2022/11/12 07:39:41;;;;;;;18.00;8.80;;;7.20;99.90;;;;;;5021692;28;20479;-81
2022/11/12 07:42:07;;;;;;;16.95;9.13;;;7.20;99.90;;;;;;5035740;28;20407;-81
2022/11/12 07:44:32;;;;;;;16.80;8.15;;;7.20;99.90;;;;;;5018229;28;20052;-81
2022/11/12 07:46:58;;;;;;;20.95;8.88;;;7.20;99.90;;;;;;5019715;28;20037;-81
2022/11/12 07:49:24;;;;;;;22.08;9.57;;;7.30;99.90;;;;;;5021314;28;20064;-81
2022/11/12 07:51:50;;;;;;;21.75;9.13;;;7.30;99.90;;;;;;5038071;28;20449;-84
2022/11/12 07:54:15;;;;;;;26.52;10.45;;;7.30;99.90;;;;;;5037122;28;20036;-84
2022/11/12 07:56:41;;;;;;;18.63;8.27;;;7.30;99.90;;;;;;5032491;28;20045;-84
2022/11/12 07:59:07;;;;;;;16.80;8.07;;;7.30;99.90;;;;;;5049885;28;20087;-84
2022/11/12 08:01:34;;;;;;;18.08;7.57;;;7.30;99.90;;;;;;5031091;28;20525;-84
2022/11/12 08:04:02;;;;;;;17.88;7.95;;;7.30;99.90;;;;;;5035765;28;20029;-84
2022/11/12 08:06:29;;;;;;;18.13;7.95;;;7.30;99.90;;;;;;5035689;28;20556;-84
2022/11/12 08:08:57;;;;;;;17.45;8.18;;;7.30;99.90;;;;;;5020718;28;20033;-80
2022/11/12 08:11:23;;;;;;;23.63;8.55;;;7.30;99.90;;;;;;5020157;28;20045;-80
2022/11/12 08:13:49;;;;;;;22.10;8.70;;;7.50;99.90;;;;;;5037070;28;20094;-80
2022/11/12 08:16:15;;;;;;;15.82;6.90;;;7.30;99.90;;;;;;5019606;28;20083;-80
2022/11/12 08:18:42;;;;;;;20.42;8.43;;;7.30;99.90;;;;;;5020846;28;20094;-80
2022/11/12 08:21:11;;;;;;;17.55;8.23;;;7.30;99.90;;;;;;5035981;28;20040;-80
2022/11/12 08:23:37;;;;;;;22.95;11.10;;;7.30;99.90;;;;;;5036609;28;20033;-80
2022/11/12 08:26:05;;;;;;;16.58;7.75;;;7.30;99.90;;;;;;5020062;28;20090;-80
2022/11/12 08:28:33;;;;;;;16.60;7.63;;;7.30;99.90;;;;;;5015581;28;20099;-80
2022/11/12 08:31:07;;;;;;;19.23;7.82;;;7.40;99.90;;;;;;5033203;28;20072;-80
2022/11/12 08:33:34;;;;;;;17.60;7.55;;;7.40;99.90;;;;;;5016200;28;20496;-80
2022/11/12 08:36:07;;;;;;;20.02;9.40;;;7.40;99.90;;;;;;5033526;28;20135;-80
2022/11/12 08:38:34;;;;;;;22.33;9.23;;;7.40;99.90;;;;;;5031048;28;20045;-80
2022/11/12 08:41:01;;;;;;;21.20;9.80;;;7.50;99.90;;;;;;5015608;28;20123;-81
2022/11/12 08:43:27;;;;;;;23.58;11.30;;;7.60;99.90;;;;;;5031659;28;20092;-81
2022/11/12 08:45:53;;;;;;;20.75;8.90;;;8.10;99.90;;;;;;5033282;28;20042;-81
2022/11/12 08:48:19;;;;;;;21.77;8.60;;;7.60;99.90;;;;;;5033043;28;20125;-81
2022/11/12 08:50:45;;;;;;;19.00;8.73;;;7.70;99.90;;;;;;5027667;28;20037;-81
2022/11/12 08:53:12;;;;;;;24.25;9.07;;;7.70;99.90;;;;;;5021596;28;20034;-82
2022/11/12 08:55:38;;;;;;;21.17;9.02;;;7.70;99.90;;;;;;5000563;28;20041;-81
2022/11/12 08:58:05;;;;;;;28.13;10.52;;;7.80;99.90;;;;;;5032540;28;20090;-79
2022/11/12 09:00:34;;;;;;;23.40;9.32;;;7.80;99.90;;;;;;4999517;28;20572;-80
2022/11/12 09:03:00;;;;;;;24.98;9.55;;;7.90;99.90;;;;;;5013941;28;20047;-81
2022/11/12 09:05:26;;;;;;;23.38;9.55;;;8.40;99.90;;;;;;5030985;28;20435;-80
2022/11/12 09:08:09;;;;;;;26.55;10.18;;;7.90;99.90;;;;;;5033565;28;20069;-79
2022/11/12 09:10:36;;;;;;;27.02;10.43;;;8.00;99.90;;;;;;5019921;28;20484;-79
2022/11/12 09:13:03;;;;;;;23.13;10.52;;;8.00;99.90;;;;;;5014100;28;20408;-80
2022/11/12 09:15:29;;;;;;;23.23;11.15;;;8.00;99.90;;;;;;5042968;28;20489;-81
2022/11/12 09:17:56;;;;;;;23.05;9.45;;;8.10;99.90;;;;;;4999174;28;20037;-81
2022/11/12 09:20:22;;;;;;;23.05;9.82;;;8.00;99.90;;;;;;5012340;28;20034;-84
2022/11/12 09:22:48;;;;;;;26.83;10.20;;;8.10;99.90;;;;;;5014601;28;20037;-84
2022/11/12 09:25:14;;;;;;;27.42;11.90;;;8.10;99.90;;;;;;5019833;28;20515;-84
2022/11/12 09:27:39;;;;;;;27.58;11.05;;;8.10;99.90;;;;;;5014648;28;20150;-84
2022/11/12 09:30:06;;;;;;;25.15;9.80;;;8.20;99.90;;;;;;5015974;28;20128;-82
2022/11/12 09:32:32;;;;;;;29.42;10.90;;;8.20;99.90;;;;;;5026955;28;20462;-81
2022/11/12 09:34:57;;;;;;;30.92;10.68;;;8.40;99.90;;;;;;5015008;28;20124;-81
2022/11/12 09:37:23;;;;;;;26.05;11.27;;;8.30;99.90;;;;;;5026106;28;20092;-81
2022/11/12 09:39:49;;;;;;;33.28;11.05;;;8.40;99.90;;;;;;5031579;28;20128;-81
2022/11/12 09:42:18;;;;;;;22.90;10.73;;;8.30;99.90;;;;;;5031946;28;20414;-81
2022/11/12 09:44:51;;;;;;;31.88;12.52;;;8.40;99.90;;;;;;5032478;28;20472;-81
2022/11/12 09:47:28;;;;;;;33.88;12.50;;;8.50;99.90;;;;;;5032216;28;20051;-85
2022/11/12 09:50:12;;;;;;;36.10;12.15;;;8.60;99.90;;;;;;5016465;28;20041;-84
2022/11/12 09:52:42;;;;;;;35.13;12.88;;;8.70;99.90;;;;;;5032717;28;20376;-85
2022/11/12 12:58:20;;;;;;;21.25;11.65;;;11.70;99.90;;;;;;5089882;28;20427;-77
2022/11/12 13:01:25;;;;;;;24.52;11.40;;;11.00;99.90;;;;;;5081048;28;20048;-78
2022/11/12 13:03:51;;;;;;;21.73;10.35;;;11.00;99.90;;;;;;5060102;28;20028;-77
2022/11/12 13:06:20;;;;;;;19.60;10.98;;;11.20;99.90;;;;;;5083322;28;20396;-76
2022/11/12 13:08:48;;;;;;;22.92;11.82;;;11.10;99.90;;;;;;5052050;28;20036;-76
2022/11/12 13:12:20;;;;;;;18.88;10.48;;;11.20;99.90;;;;;;5056694;28;20036;-77
2022/11/12 13:14:33;;;;;;;22.88;11.18;;;11.30;99.90;;;;;;5099031;28;20044;-77
2022/11/12 13:17:11;;;;;;;25.15;10.98;;;11.20;99.90;;;;;;5057306;28;20128;-77
2022/11/12 13:19:42;;;;;;;19.88;10.48;;;11.30;99.90;;;;;;5052045;28;20045;-78
2022/11/12 13:22:17;;;;;;;20.33;10.75;;;11.40;99.90;;;;;;5078165;28;20487;-78
2022/11/12 13:25:11;;;;;;;19.92;10.25;;;11.90;99.90;;;;;;5078338;28;20055;-78
2022/11/12 13:27:45;;;;;;;19.25;10.07;;;12.20;99.90;;;;;;5088912;28;20049;-78
2022/11/12 13:30:17;;;;;;;19.05;10.10;;;12.20;99.90;;;;;;5088815;28;20044;-78
2022/11/12 13:32:56;;;;;;;15.25;8.25;;;12.30;99.90;;;;;;5086809;28;20504;-78
2022/11/12 13:35:29;;;;;;;20.88;9.95;;;12.60;99.90;;;;;;5079892;28;20380;-78
2022/11/12 13:38:07;;;;;;;22.67;9.77;;;12.80;99.90;;;;;;5086242;28;20438;-83
2022/11/12 13:40:42;;;;;;;19.73;10.82;;;13.00;99.90;;;;;;5071841;28;20037;-82
2022/11/12 13:43:43;;;;;;;18.73;9.85;;;13.30;99.90;;;;;;5086945;28;20036;-82
2022/11/12 13:46:09;;;;;;;17.27;9.75;;;13.40;99.90;;;;;;5080086;28;20131;-82
2022/11/12 13:48:43;;;;;;;13.73;7.88;;;13.40;99.90;;;;;;5086854;28;20460;-82
2022/11/12 13:51:27;;;;;;;18.25;8.95;;;13.30;99.90;;;;;;5065937;28;20044;-82
2022/11/12 13:53:53;;;;;;;17.75;10.13;;;13.30;99.90;;;;;;5066629;28;20093;-79
2022/11/12 13:56:33;;;;;;;15.35;8.52;;;13.40;99.90;;;;;;5083543;28;20052;-78
2022/11/12 13:59:14;;;;;;;16.42;9.23;;;13.40;99.90;;;;;;5085337;28;20059;-78
2022/11/12 14:01:41;;;;;;;14.23;7.90;;;13.50;99.90;;;;;;5065350;28;20385;-77
2022/11/12 14:04:12;;;;;;;14.10;8.07;;;13.50;99.90;;;;;;5052424;28;20036;-77
2022/11/12 14:06:42;;;;;;;12.77;8.35;;;13.40;99.90;;;;;;5070734;28;20079;-76
2022/11/12 14:09:39;;;;;;;13.82;7.55;;;13.20;99.90;;;;;;5070028;28;20036;-77
2022/11/12 14:12:32;;;;;;;15.75;8.35;;;13.00;99.90;;;;;;5054860;28;20072;-82
2022/11/12 14:15:07;;;;;;;15.27;8.20;;;12.80;99.90;;;;;;5073568;28;20072;-82
2022/11/12 14:17:46;;;;;;;15.38;8.20;;;12.90;99.90;;;;;;5066855;28;20127;-82
2022/11/12 14:20:26;;;;;;;13.43;7.90;;;12.80;99.90;;;;;;5084912;28;20047;-82
2022/11/12 14:22:53;;;;;;;13.82;7.35;;;12.60;99.90;;;;;;5071523;28;20040;-81
2022/11/12 14:25:22;;;;;;;13.63;7.47;;;12.50;99.90;;;;;;5072737;28;20057;-82
2022/11/12 14:27:49;;;;;;;11.32;6.63;;;12.40;99.90;;;;;;5055258;28;20036;-79
2022/11/12 14:30:20;;;;;;;15.68;9.10;;;12.30;99.90;;;;;;5055035;28;20099;-78
2022/11/12 14:32:48;;;;;;;13.20;7.28;;;12.00;99.90;;;;;;5047590;28;20124;-78
2022/11/12 14:35:18;;;;;;;17.58;8.90;;;11.70;99.90;;;;;;5058937;28;20542;-78
2022/11/12 14:37:58;;;;;;;14.50;8.18;;;11.50;99.90;;;;;;5039012;28;20124;-78
2022/11/12 14:40:27;;;;;;;16.55;8.27;;;11.30;99.90;;;;;;5054510;28;20040;-78
2022/11/12 14:42:53;;;;;;;15.88;8.63;;;11.20;99.90;;;;;;5053147;28;20048;-80
2022/11/12 14:45:20;;;;;;;14.95;8.57;;;11.10;99.90;;;;;;5048282;28;20082;-80
2022/11/12 14:47:48;;;;;;;19.30;9.70;;;11.00;99.90;;;;;;5074286;28;20044;-80
2022/11/12 14:50:29;;;;;;;17.50;8.73;;;10.90;99.90;;;;;;5057800;28;20037;-80
2022/11/12 14:53:08;;;;;;;16.83;9.00;;;10.70;99.90;;;;;;5072881;28;20133;-80
2022/11/12 14:55:36;;;;;;;16.35;8.75;;;10.70;99.90;;;;;;5070533;28;20098;-80
2022/11/12 14:58:03;;;;;;;17.30;9.45;;;10.50;99.90;;;;;;5042797;28;20081;-80
2022/11/12 15:00:29;;;;;;;17.00;9.52;;;10.50;99.90;;;;;;5054375;28;20122;-80
2022/11/12 15:02:56;;;;;;;18.48;9.05;;;10.40;99.90;;;;;;5082040;28;20449;-80
2022/11/12 15:05:22;;;;;;;16.63;9.65;;;10.30;99.90;;;;;;5062906;28;20045;-80
2022/11/12 15:07:59;;;;;;;18.65;9.38;;;10.20;99.90;;;;;;5067708;28;20098;-80
2022/11/12 15:10:34;;;;;;;17.52;8.63;;;10.10;99.90;;;;;;5069632;28;20484;-80
2022/11/12 15:13:20;;;;;;;14.18;8.23;;;10.00;99.90;;;;;;5073382;28;20036;-80
2022/11/12 15:16:06;;;;;;;19.00;8.93;;;10.00;99.90;;;;;;5066898;28;20380;-80
2022/11/12 15:18:34;;;;;;;16.65;9.50;;;9.90;99.90;;;;;;5068844;28;20392;-78
2022/11/12 15:21:21;;;;;;;17.05;9.45;;;9.80;99.90;;;;;;5075878;28;20041;-78
2022/11/12 15:23:49;;;;;;;16.05;8.05;;;9.70;99.90;;;;;;5066924;28;20075;-78
2022/11/12 15:26:35;;;;;;;14.50;8.65;;;9.60;99.90;;;;;;5054629;28;20523;-78
2022/11/12 15:29:13;;;;;;;11.45;6.22;;;9.50;99.90;;;;;;5050915;28;20123;-80
2022/11/12 15:31:58;;;;;;;19.33;9.23;;;9.50;99.90;;;;;;5070321;28;20047;-78
2022/11/12 15:34:45;;;;;;;14.27;8.27;;;9.40;99.90;;;;;;5052007;28;20040;-80
2022/11/12 15:37:17;;;;;;;15.75;9.13;;;9.30;99.90;;;;;;5072897;28;20044;-79
2022/11/12 15:39:47;;;;;;;16.67;9.15;;;9.20;99.90;;;;;;5056355;28;20066;-80
2022/11/12 15:42:43;;;;;;;13.50;7.45;;;9.10;99.90;;;;;;5053494;28;20044;-81
2022/11/12 15:45:20;;;;;;;15.55;8.52;;;8.90;99.90;;;;;;5053540;28;20047;-81
2022/11/12 15:47:46;;;;;;;16.65;9.63;;;8.90;99.90;;;;;;5072434;28;20123;-81
2022/11/12 15:50:12;;;;;;;13.43;8.40;;;8.80;99.90;;;;;;5072177;28;20033;-79
2022/11/12 15:52:39;;;;;;;13.57;7.93;;;8.60;99.90;;;;;;5069495;28;20044;-79
2022/11/12 15:55:07;;;;;;;12.85;7.65;;;8.50;99.90;;;;;;5055915;28;20086;-78
2022/11/12 15:57:40;;;;;;;20.08;10.60;;;8.40;99.90;;;;;;5049198;28;20057;-79
2022/11/12 16:00:18;;;;;;;22.13;10.15;;;8.40;99.90;;;;;;5071990;28;20044;-79
2022/11/12 16:02:46;;;;;;;15.02;8.45;;;8.30;99.90;;;;;;5050136;28;20119;-79
2022/11/12 16:05:13;;;;;;;16.30;8.43;;;8.30;99.90;;;;;;5055249;28;20045;-78
2022/11/12 16:07:39;;;;;;;13.60;7.53;;;8.20;99.90;;;;;;5058912;28;20091;-78
2022/11/12 16:10:06;;;;;;;17.63;8.68;;;8.20;99.90;;;;;;5053798;28;20041;-78
2022/11/12 16:12:33;;;;;;;17.45;8.88;;;8.10;99.90;;;;;;5058258;28;20048;-79
2022/11/12 16:15:00;;;;;;;16.65;7.82;;;8.00;99.90;;;;;;5066902;28;20590;-79